createdAt,value
2023-02-23T00:01:29.075Z,69.88
2023-02-23T00:03:57.285Z,63.72
2023-02-23T00:06:25.990Z,64.95
2023-02-23T00:08:53.074Z,63.90
2023-02-23T00:11:21.356Z,74.07
2023-02-23T00:13:50.209Z,72.82
2023-02-23T00:16:22.736Z,73.63
2023-02-23T00:18:54.920Z,73.43
2023-02-23T00:21:35.318Z,71.50
2023-02-23T00:24:08.819Z,81.80
2023-02-23T00:26:37.439Z,71.07
2023-02-23T00:29:07.093Z,73.43
2023-02-23T00:31:34.264Z,79.32
2023-02-23T00:34:02.711Z,74.57
2023-02-23T00:36:34.065Z,72.80
2023-02-23T00:39:20.600Z,68.68
2023-02-23T00:41:52.319Z,65.72
2023-02-23T00:44:21.001Z,70.38
2023-02-23T00:46:51.629Z,75.50
2023-02-23T00:49:19.642Z,69.03
2023-02-23T00:51:47.018Z,71.82
2023-02-23T00:54:15.309Z,77.43
2023-02-23T00:56:42.309Z,73.18
2023-02-23T00:59:09.090Z,79.78
2023-02-23T01:01:37.474Z,67.07
2023-02-23T01:04:04.760Z,75.97
2023-02-23T01:06:32.470Z,68.72
2023-02-23T01:08:59.101Z,72.28
2023-02-23T01:11:30.966Z,72.88
2023-02-23T01:13:59.986Z,78.20
2023-02-23T01:16:29.908Z,78.00
2023-02-23T01:18:58.309Z,82.97
2023-02-23T01:21:26.257Z,82.88
2023-02-23T01:23:53.759Z,80.80
2023-02-23T01:26:21.961Z,84.20
2023-02-23T01:28:50.507Z,83.75
2023-02-23T01:31:17.458Z,92.97
2023-02-23T01:33:44.542Z,84.60
2023-02-23T01:36:11.052Z,86.68
2023-02-23T01:38:37.880Z,81.00
2023-02-23T01:41:05.045Z,83.40
2023-02-23T01:43:31.551Z,81.15
2023-02-23T01:46:00.933Z,90.32
2023-02-23T01:48:32.618Z,88.78
2023-02-23T01:51:10.796Z,90.22
2023-02-23T01:53:42.645Z,85.20
2023-02-23T01:56:14.384Z,80.72
2023-02-23T01:58:45.879Z,88.43
2023-02-23T02:01:13.215Z,87.95
2023-02-23T02:03:43.927Z,79.15
2023-02-23T02:06:14.579Z,86.95
2023-02-23T02:08:46.315Z,82.20
2023-02-23T02:11:30.598Z,73.25
2023-02-23T02:14:05.009Z,85.95
2023-02-23T02:16:43.979Z,80.07
2023-02-23T02:19:28.866Z,83.53
2023-02-23T02:22:17.100Z,80.13
2023-02-23T02:25:17.629Z,78.03
2023-02-23T02:27:57.431Z,75.78
2023-02-23T02:30:30.071Z,81.97
2023-02-23T02:33:14.886Z,88.53
2023-02-23T02:36:10.068Z,84.27
2023-02-23T02:38:53.580Z,89.00
2023-02-23T02:41:35.748Z,88.68
2023-02-23T02:44:49.834Z,87.55
2023-02-23T02:47:34.613Z,83.00
2023-02-23T02:50:14.539Z,78.53
2023-02-23T02:52:47.723Z,80.32
2023-02-23T02:55:35.199Z,86.40
2023-02-23T02:58:04.511Z,88.20
2023-02-23T03:01:01.434Z,88.13
2023-02-23T03:03:55.541Z,84.28
2023-02-23T03:06:57.480Z,91.55
2023-02-23T03:10:06.279Z,91.90
2023-02-23T03:13:03.483Z,90.93
2023-02-23T03:15:57.399Z,89.60
2023-02-23T03:19:02.526Z,97.30
2023-02-23T03:22:02.367Z,92.90
2023-02-23T03:24:56.912Z,89.10
2023-02-23T03:28:02.935Z,92.35
2023-02-23T03:31:04.108Z,92.95
2023-02-23T03:34:03.104Z,92.53
2023-02-23T03:36:54.492Z,94.20
2023-02-23T03:39:57.971Z,92.13
2023-02-23T03:42:49.052Z,100.10
2023-02-23T03:45:38.466Z,96.40
2023-02-23T03:48:28.443Z,91.38
2023-02-23T03:51:18.247Z,95.47
2023-02-23T03:54:12.751Z,102.05
2023-02-23T03:57:03.131Z,96.30
2023-02-23T03:59:55.635Z,90.03
2023-02-23T04:02:42.108Z,104.57
2023-02-23T04:05:33.042Z,94.45
2023-02-23T04:08:20.889Z,103.43
2023-02-23T04:11:12.701Z,97.20
2023-02-23T04:13:40.395Z,90.05
2023-02-23T04:16:09.018Z,103.28
2023-02-23T04:18:38.760Z,94.50
2023-02-23T04:21:06.673Z,102.32
2023-02-23T04:23:33.204Z,93.65
2023-02-23T04:25:59.775Z,95.88
2023-02-23T04:28:27.820Z,91.55
2023-02-23T04:30:54.398Z,100.88
2023-02-23T04:33:22.281Z,96.95
2023-02-23T04:35:49.156Z,109.55
2023-02-23T04:38:15.724Z,98.75
2023-02-23T04:40:42.213Z,101.63
2023-02-23T04:43:11.828Z,101.88
2023-02-23T04:45:38.561Z,106.00
2023-02-23T04:48:05.578Z,106.05
2023-02-23T04:50:32.695Z,100.25
2023-02-23T04:52:59.364Z,101.45
2023-02-23T04:55:26.449Z,106.40
2023-02-23T04:57:59.064Z,109.60
2023-02-23T05:00:26.638Z,113.13
2023-02-23T05:02:53.200Z,115.38
2023-02-23T05:05:19.736Z,100.32
2023-02-23T05:07:46.245Z,105.25
2023-02-23T05:10:12.766Z,113.55
2023-02-23T05:12:39.250Z,106.03
2023-02-23T05:15:06.401Z,103.40
2023-02-23T05:17:32.882Z,117.78
2023-02-23T05:19:59.393Z,107.15
2023-02-23T05:22:25.919Z,115.55
2023-02-23T05:24:52.428Z,106.45
2023-02-23T05:27:19.130Z,114.10
2023-02-23T05:29:45.666Z,109.57
2023-02-23T05:32:12.365Z,119.28
2023-02-23T05:34:39.213Z,112.57
2023-02-23T05:37:06.221Z,112.63
2023-02-23T05:39:32.933Z,116.35
2023-02-23T05:41:59.467Z,109.18
2023-02-23T05:44:26.062Z,106.40
2023-02-23T05:46:52.936Z,116.40
2023-02-23T05:49:19.417Z,115.55
2023-02-23T05:51:45.872Z,115.72
2023-02-23T05:54:13.466Z,112.82
2023-02-23T05:56:41.152Z,120.47
2023-02-23T05:59:07.817Z,103.13
2023-02-23T06:01:34.322Z,112.38
2023-02-23T06:04:00.925Z,119.50
2023-02-23T06:06:28.470Z,120.13
2023-02-23T06:08:55.163Z,118.22
2023-02-23T06:11:21.972Z,123.95
2023-02-23T06:13:48.958Z,130.57
2023-02-23T06:16:15.858Z,124.97
2023-02-23T06:18:42.440Z,120.60
2023-02-23T06:21:08.928Z,127.13
2023-02-23T06:23:35.512Z,115.35
2023-02-23T06:26:02.284Z,111.63
2023-02-23T06:28:29.415Z,119.88
2023-02-23T06:30:56.125Z,113.97
2023-02-23T06:33:23.164Z,108.57
2023-02-23T06:35:49.933Z,106.63
2023-02-23T06:38:16.889Z,103.70
2023-02-23T06:40:43.698Z,120.35
2023-02-23T06:43:10.692Z,109.28
2023-02-23T06:45:37.279Z,112.38
2023-02-23T06:48:04.415Z,110.07
2023-02-23T06:50:31.019Z,108.25
2023-02-23T06:52:57.653Z,107.75
2023-02-23T06:55:24.536Z,107.32
2023-02-23T06:57:52.354Z,105.20
2023-02-23T07:00:19.334Z,103.63
2023-02-23T07:02:45.929Z,105.22
2023-02-23T07:05:12.438Z,111.15
2023-02-23T07:07:38.986Z,104.50
2023-02-23T07:10:06.274Z,103.38
2023-02-23T07:12:32.899Z,121.15
2023-02-23T07:14:59.399Z,110.28
2023-02-23T07:17:25.883Z,125.47
2023-02-23T07:19:52.502Z,121.38
2023-02-23T07:22:18.952Z,114.43
2023-02-23T07:24:46.280Z,124.40
2023-02-23T07:27:12.820Z,130.40
2023-02-23T07:29:39.296Z,122.30
2023-02-23T07:32:06.056Z,123.47
2023-02-23T07:34:32.640Z,117.82
2023-02-23T07:36:59.150Z,128.48
2023-02-23T07:39:25.737Z,119.55
2023-02-23T07:41:52.199Z,117.95
2023-02-23T07:44:19.526Z,119.55
2023-02-23T07:46:46.534Z,118.25
2023-02-23T07:49:13.872Z,117.05
2023-02-23T07:51:41.113Z,124.25
2023-02-23T07:54:07.719Z,123.53
2023-02-23T07:56:35.277Z,120.97
2023-02-23T07:59:02.641Z,126.18
2023-02-23T08:01:29.282Z,108.13
2023-02-23T08:03:55.925Z,112.68
2023-02-23T08:06:22.494Z,121.88
2023-02-23T08:08:49.195Z,121.10
2023-02-23T08:11:15.829Z,123.03
2023-02-23T08:13:42.545Z,118.60
2023-02-23T08:16:09.033Z,121.28
2023-02-23T08:18:35.685Z,109.43
2023-02-23T08:21:03.595Z,107.82
2023-02-23T08:23:34.935Z,108.38
2023-02-23T08:26:02.668Z,103.38
2023-02-23T08:28:30.846Z,123.28
2023-02-23T08:30:59.277Z,104.68
2023-02-23T08:33:25.952Z,110.97
2023-02-23T08:35:53.646Z,107.45
2023-02-23T08:38:20.425Z,118.80
2023-02-23T08:40:46.978Z,121.50
2023-02-23T08:43:13.487Z,107.93
2023-02-23T08:45:39.990Z,108.95
2023-02-23T08:48:07.819Z,111.90
2023-02-23T08:50:34.817Z,116.65
2023-02-23T08:53:01.386Z,121.13
2023-02-23T08:55:27.869Z,124.75
2023-02-23T08:57:54.368Z,113.88
2023-02-23T09:00:21.281Z,116.22
2023-02-23T09:02:48.297Z,128.90
2023-02-23T09:05:15.121Z,110.97
2023-02-23T09:07:45.067Z,114.22
2023-02-23T09:10:16.895Z,98.60
2023-02-23T09:12:43.417Z,118.13
2023-02-23T09:15:10.563Z,115.65
2023-02-23T09:17:37.998Z,115.93
2023-02-23T09:20:06.245Z,107.93
2023-02-23T09:22:32.791Z,90.63
2023-02-23T09:24:59.326Z,103.60
2023-02-23T09:27:26.102Z,97.22
2023-02-23T09:29:52.664Z,89.75
2023-02-23T09:32:19.370Z,95.93
2023-02-23T09:34:48.658Z,98.53
2023-02-23T09:37:15.743Z,86.82
2023-02-23T09:39:43.561Z,90.97
2023-02-23T09:42:17.044Z,89.93
2023-02-23T09:45:01.426Z,89.20
2023-02-23T09:47:27.921Z,88.85
2023-02-23T09:49:56.288Z,86.10
2023-02-23T09:52:28.111Z,80.30
2023-02-23T09:54:54.756Z,87.72
2023-02-23T09:57:36.605Z,76.20
2023-02-23T10:00:13.047Z,82.50
2023-02-23T10:03:00.918Z,71.28
2023-02-23T10:05:31.802Z,78.68
2023-02-23T10:08:16.508Z,81.38
2023-02-23T10:10:47.309Z,72.13
2023-02-23T10:13:31.876Z,75.80
2023-02-23T10:16:05.420Z,67.55
2023-02-23T10:18:52.292Z,53.90
2023-02-23T10:21:39.176Z,65.45
2023-02-23T10:24:26.936Z,63.55
2023-02-23T10:27:10.336Z,64.43
2023-02-23T10:29:51.602Z,60.92
2023-02-23T10:32:41.076Z,65.28
2023-02-23T10:35:14.741Z,60.15
2023-02-23T10:37:41.510Z,59.15
2023-02-23T10:40:16.637Z,58.03
2023-02-23T10:42:43.847Z,70.43
2023-02-23T10:45:19.657Z,51.30
2023-02-23T10:47:47.035Z,56.25
2023-02-23T10:50:15.048Z,59.28
2023-02-23T10:52:45.531Z,59.45
2023-02-23T10:55:28.675Z,61.15
2023-02-23T10:58:19.170Z,64.75
2023-02-23T11:00:55.523Z,59.90
2023-02-23T11:03:26.726Z,62.45
2023-02-23T11:05:53.832Z,61.40
2023-02-23T11:08:29.309Z,63.88
2023-02-23T11:10:57.129Z,59.72
2023-02-23T11:13:27.328Z,60.78
2023-02-23T11:16:10.744Z,61.40
2023-02-23T11:18:39.340Z,62.17
2023-02-23T11:21:12.333Z,55.45
2023-02-23T11:23:41.264Z,59.63
2023-02-23T11:26:41.703Z,68.72
2023-02-23T11:29:36.394Z,59.05
2023-02-23T11:32:31.500Z,61.95
2023-02-23T11:35:16.400Z,55.67
2023-02-23T11:37:42.921Z,59.83
2023-02-23T11:40:29.019Z,58.88
2023-02-23T11:43:19.056Z,58.35
2023-02-23T11:45:51.879Z,52.00
2023-02-23T11:48:22.211Z,50.75
2023-02-23T11:50:49.644Z,59.60
2023-02-23T11:53:29.980Z,45.65
2023-02-23T11:56:02.583Z,55.85
2023-02-23T11:58:39.388Z,52.80
2023-02-23T12:01:12.240Z,58.35
2023-02-23T12:03:47.764Z,53.35
2023-02-23T12:06:35.595Z,51.80
2023-02-23T12:09:05.249Z,58.97
2023-02-23T12:11:37.975Z,53.85
2023-02-23T12:14:18.745Z,57.08
2023-02-23T12:16:50.835Z,58.10
2023-02-23T12:19:20.313Z,57.53
2023-02-23T12:22:05.613Z,43.20
2023-02-23T12:25:04.918Z,41.40
2023-02-23T12:27:46.492Z,39.53
2023-02-23T12:30:45.837Z,40.90
2023-02-23T12:33:12.370Z,47.60
2023-02-23T12:35:45.669Z,44.47
2023-02-23T12:38:41.306Z,36.13
2023-02-23T12:41:19.176Z,41.60
2023-02-23T12:43:55.662Z,44.47
2023-02-23T12:46:26.698Z,44.83
2023-02-23T12:49:17.084Z,43.53
2023-02-23T12:51:51.628Z,49.22
2023-02-23T12:54:18.698Z,47.13
2023-02-23T12:57:12.557Z,47.08
2023-02-23T12:59:44.880Z,44.45
2023-02-23T13:02:33.705Z,46.42
2023-02-23T13:05:31.316Z,48.88
2023-02-23T13:08:23.425Z,48.75
2023-02-23T13:11:17.202Z,44.78
2023-02-23T13:13:59.990Z,48.33
2023-02-23T13:16:33.025Z,54.10
2023-02-23T13:19:19.578Z,48.72
2023-02-23T13:21:56.126Z,51.72
2023-02-23T13:24:47.365Z,52.42
2023-02-23T13:27:21.162Z,44.83
2023-02-23T13:29:49.833Z,49.08
2023-02-23T13:32:20.455Z,54.97
2023-02-23T13:35:12.949Z,53.72
2023-02-23T13:37:45.461Z,53.42
2023-02-23T13:40:46.612Z,49.83
2023-02-23T13:43:24.113Z,50.10
2023-02-23T13:46:01.845Z,50.95
2023-02-23T13:48:54.416Z,53.60
2023-02-23T13:51:27.025Z,46.97
2023-02-23T13:54:06.486Z,52.25
2023-02-23T13:56:42.165Z,47.55
2023-02-23T13:59:17.213Z,49.08
2023-02-23T14:01:46.207Z,48.72
2023-02-23T14:04:22.106Z,48.78
2023-02-23T14:07:22.171Z,50.20
2023-02-23T14:09:56.019Z,43.67
2023-02-23T14:12:39.857Z,50.65
2023-02-23T14:15:28.233Z,42.83
2023-02-23T14:18:02.518Z,41.42
2023-02-23T14:20:57.012Z,41.05
2023-02-23T14:23:23.641Z,43.50
2023-02-23T14:26:11.522Z,43.22
2023-02-23T14:28:44.582Z,45.72
2023-02-23T14:31:11.209Z,41.85
2023-02-23T14:33:48.435Z,42.47
2023-02-23T14:36:21.072Z,43.28
2023-02-23T14:39:01.134Z,48.22
2023-02-23T14:41:50.303Z,43.42
2023-02-23T14:44:34.817Z,42.85
2023-02-23T14:47:11.343Z,47.05
2023-02-23T14:49:43.590Z,48.15
2023-02-23T14:52:15.148Z,45.30
2023-02-23T14:54:41.682Z,46.65
2023-02-23T14:57:25.991Z,45.15
2023-02-23T15:00:07.189Z,39.83
2023-02-23T15:02:35.514Z,43.13
2023-02-23T15:05:18.009Z,46.58
2023-02-23T15:07:45.713Z,46.17
2023-02-23T15:10:46.018Z,50.95
2023-02-23T15:13:29.658Z,46.58
2023-02-23T15:15:58.742Z,43.50
2023-02-23T15:18:33.327Z,48.58
2023-02-23T15:21:12.059Z,47.72
2023-02-23T15:23:38.981Z,45.45
2023-02-23T15:26:33.025Z,43.90
2023-02-23T15:29:13.547Z,45.97
2023-02-23T15:31:50.163Z,45.40
2023-02-23T15:34:19.979Z,52.05
2023-02-23T15:36:57.735Z,49.05
2023-02-23T15:40:17.917Z,44.67
2023-02-23T15:42:48.243Z,46.67
2023-02-23T15:45:28.562Z,47.03
2023-02-23T15:47:57.538Z,51.97
2023-02-23T15:50:50.080Z,49.10
2023-02-23T15:53:38.155Z,49.13
2023-02-23T15:56:14.335Z,50.75
2023-02-23T15:58:56.366Z,45.55
2023-02-23T16:01:29.100Z,51.15
2023-02-23T16:04:05.562Z,52.50
2023-02-23T16:06:36.953Z,45.80
2023-02-23T16:09:20.980Z,44.58
2023-02-23T16:11:51.115Z,48.17
2023-02-23T16:14:20.067Z,45.70
2023-02-23T16:17:08.473Z,44.58
2023-02-23T16:19:40.975Z,41.13
2023-02-23T16:22:19.779Z,50.35
2023-02-23T16:24:56.532Z,38.97
2023-02-23T16:27:24.797Z,37.28
2023-02-23T16:30:00.222Z,43.58
2023-02-23T16:32:37.829Z,45.95
2023-02-23T16:35:17.349Z,42.67
2023-02-23T16:38:12.703Z,44.42
2023-02-23T16:40:40.976Z,48.63
2023-02-23T16:43:08.173Z,42.33
2023-02-23T16:45:35.143Z,43.25
2023-02-23T16:48:03.406Z,52.70
2023-02-23T16:50:30.552Z,42.90
2023-02-23T16:52:57.071Z,43.60
2023-02-23T16:55:26.336Z,43.20
2023-02-23T16:58:03.984Z,45.58
2023-02-23T17:00:32.896Z,43.08
2023-02-23T17:03:05.671Z,47.58
2023-02-23T17:05:32.893Z,48.53
2023-02-23T17:07:59.439Z,43.42
2023-02-23T17:10:32.686Z,41.35
2023-02-23T17:13:05.491Z,46.05
2023-02-23T17:15:41.338Z,50.67
2023-02-23T17:18:07.933Z,48.28
2023-02-23T17:20:34.425Z,48.33
2023-02-23T17:23:02.716Z,51.25
2023-02-23T17:25:29.385Z,49.22
2023-02-23T17:27:57.688Z,49.53
2023-02-23T17:30:24.853Z,44.17
2023-02-23T17:32:53.421Z,49.63
2023-02-23T17:35:20.348Z,42.20
2023-02-23T17:37:46.964Z,41.65
2023-02-23T17:40:26.165Z,45.83
2023-02-23T17:42:53.614Z,53.00
2023-02-23T17:45:20.174Z,45.47
2023-02-23T17:47:46.732Z,44.05
2023-02-23T17:50:13.321Z,45.20
2023-02-23T17:52:39.903Z,54.03
2023-02-23T17:55:07.282Z,46.78
2023-02-23T17:57:33.770Z,46.45
2023-02-23T18:00:00.303Z,47.22
2023-02-23T18:02:26.894Z,52.00
2023-02-23T18:04:53.646Z,45.35
2023-02-23T18:07:21.155Z,47.78
2023-02-23T18:09:50.130Z,49.33
2023-02-23T18:12:17.947Z,48.78
2023-02-23T18:14:45.499Z,42.55
2023-02-23T18:17:13.525Z,46.63
2023-02-23T18:19:40.052Z,44.28
2023-02-23T18:22:06.820Z,44.80
2023-02-23T18:24:33.498Z,50.42
2023-02-23T18:27:03.459Z,50.97
2023-02-23T18:29:32.013Z,45.47
2023-02-23T18:32:00.226Z,43.95
2023-02-23T18:34:28.743Z,47.83
2023-02-23T18:36:57.345Z,48.50
2023-02-23T18:39:24.046Z,49.75
2023-02-23T18:41:56.763Z,49.58
2023-02-23T18:44:25.583Z,42.58
2023-02-23T18:46:52.987Z,49.00
2023-02-23T18:49:22.266Z,49.15
2023-02-23T18:51:49.531Z,49.40
2023-02-23T18:54:19.081Z,44.72
2023-02-23T18:56:49.946Z,42.10
2023-02-23T18:59:16.754Z,48.38
2023-02-23T19:01:46.568Z,41.25
2023-02-23T19:04:13.213Z,46.97
2023-02-23T19:06:42.986Z,47.83
2023-02-23T19:09:12.543Z,39.50
2023-02-23T19:11:43.401Z,45.75
2023-02-23T19:14:16.088Z,44.53
2023-02-23T19:16:43.613Z,42.85
2023-02-23T19:19:10.134Z,47.28
2023-02-23T19:21:37.536Z,40.97
2023-02-23T19:24:05.608Z,42.90
2023-02-23T19:26:37.684Z,41.45
2023-02-23T19:29:12.371Z,47.20
2023-02-23T19:31:39.353Z,49.25
2023-02-23T19:34:10.616Z,41.63
2023-02-23T19:36:38.477Z,47.15
2023-02-23T19:39:17.613Z,40.20
2023-02-23T19:41:45.751Z,44.15
2023-02-23T19:44:12.244Z,45.60
2023-02-23T19:46:39.915Z,45.60
2023-02-23T19:49:18.731Z,46.35
2023-02-23T19:51:45.305Z,47.50
2023-02-23T19:54:12.015Z,42.78
2023-02-23T19:56:38.711Z,38.72
2023-02-23T19:59:23.356Z,43.60
2023-02-23T20:01:51.347Z,48.65
2023-02-23T20:04:19.203Z,41.97
2023-02-23T20:06:47.059Z,42.72
2023-02-23T20:09:23.984Z,48.08
2023-02-23T20:11:50.424Z,52.88
2023-02-23T20:14:17.178Z,48.80
2023-02-23T20:16:43.848Z,42.08
2023-02-23T20:19:11.553Z,51.33
2023-02-23T20:21:39.619Z,49.58
2023-02-23T20:24:06.403Z,47.03
2023-02-23T20:26:37.221Z,40.80
2023-02-23T20:29:13.641Z,39.20
2023-02-23T20:31:50.483Z,39.78
2023-02-23T20:34:21.093Z,47.65
2023-02-23T20:36:50.851Z,32.08
2023-02-23T20:39:17.796Z,28.08
2023-02-23T20:41:45.684Z,19.90
2023-02-23T20:44:13.221Z,23.30
2023-02-23T20:46:41.284Z,20.33
2023-02-23T20:49:12.702Z,19.77
2023-02-23T20:51:49.251Z,17.83
2023-02-23T20:54:18.782Z,17.27
2023-02-23T20:56:45.836Z,23.05
2023-02-23T20:59:17.286Z,16.20
2023-02-23T21:01:44.502Z,28.98
2023-02-23T21:04:23.637Z,18.55
2023-02-23T21:06:56.614Z,14.48
2023-02-23T21:09:25.735Z,33.92
2023-02-23T21:11:52.233Z,15.52
2023-02-23T21:14:18.793Z,20.90
2023-02-23T21:16:46.207Z,20.42
2023-02-23T21:19:14.654Z,36.40
2023-02-23T21:21:47.066Z,34.47
2023-02-23T21:24:15.123Z,32.90
2023-02-23T21:26:42.464Z,29.50
2023-02-23T21:29:11.719Z,25.85
2023-02-23T21:31:39.490Z,30.23
2023-02-23T21:34:08.117Z,32.80
2023-02-23T21:36:35.366Z,30.50
2023-02-23T21:39:01.899Z,33.03
2023-02-23T21:41:33.779Z,32.55
2023-02-23T21:44:01.552Z,26.58
2023-02-23T21:46:28.611Z,28.38
2023-02-23T21:48:55.185Z,35.55
2023-02-23T21:51:22.117Z,33.22
2023-02-23T21:53:48.924Z,32.38
2023-02-23T21:56:18.393Z,25.55
2023-02-23T21:58:53.051Z,35.72
2023-02-23T22:01:23.409Z,33.72
2023-02-23T22:03:50.781Z,27.88
2023-02-23T22:06:20.405Z,30.08
2023-02-23T22:08:49.917Z,25.42
2023-02-23T22:11:19.660Z,27.83
2023-02-23T22:13:51.039Z,26.23
2023-02-23T22:16:19.346Z,30.90
2023-02-23T22:18:46.639Z,27.80
2023-02-23T22:21:13.927Z,22.83
2023-02-23T22:23:41.629Z,28.60
2023-02-23T22:26:09.024Z,25.98
2023-02-23T22:28:35.987Z,31.27
2023-02-23T22:31:04.345Z,28.60
2023-02-23T22:33:30.985Z,27.50
2023-02-23T22:36:13.519Z,34.05
2023-02-23T22:38:42.811Z,34.35
2023-02-23T22:41:12.483Z,34.40
2023-02-23T22:43:40.919Z,29.58
2023-02-23T22:46:08.147Z,29.38
2023-02-23T22:48:36.020Z,33.00
2023-02-23T22:51:03.176Z,23.92
2023-02-23T22:53:30.505Z,33.53
2023-02-23T22:55:57.107Z,34.85
2023-02-23T22:58:26.447Z,29.90
2023-02-23T23:01:09.743Z,24.70
2023-02-23T23:03:39.630Z,26.50
2023-02-23T23:06:08.717Z,33.97
2023-02-23T23:08:43.307Z,24.48
2023-02-23T23:11:19.465Z,33.22
2023-02-23T23:13:48.916Z,22.83
2023-02-23T23:16:30.709Z,33.55
2023-02-23T23:19:02.639Z,15.45
2023-02-23T23:21:31.844Z,26.67
2023-02-23T23:24:01.277Z,29.25
2023-02-23T23:26:29.590Z,31.85
2023-02-23T23:28:58.118Z,28.60
2023-02-23T23:31:30.133Z,28.13
2023-02-23T23:34:02.441Z,29.08
2023-02-23T23:36:34.832Z,23.25
2023-02-23T23:39:02.800Z,25.00
2023-02-23T23:41:35.247Z,27.02
2023-02-23T23:44:05.292Z,24.58
2023-02-23T23:46:35.428Z,36.80
2023-02-23T23:49:08.621Z,27.05
2023-02-23T23:51:39.092Z,29.13
2023-02-23T23:54:07.994Z,26.80
2023-02-23T23:56:37.273Z,31.20
2023-02-23T23:59:08.596Z,28.20
